• Join FlightAware (Why Join?)
  • Login
  • US Flag 
10:40PM EDT


 

Airport Tracker/Info


-or-


 

Live Flight TrackerFlight Track Log ✈ SKW5516 ✈ 01-Jun-2013 ✈ KFAT - KLAX

Flight Track Log - Related Links

Times and Time Zones

All times are in EDT time to prevent confusion due to time zone crossing. See the SKW5516 flight status page for this flight to view local times or setup timezone preferences in your user account.

Time Position Orientation Groundspeed Altitude Reporting Facility
EDT Latitude Longitude Course Direction KTS MPH feet Rate Location/Type
06:21PM 36.5964 -119.6324 159° South  Level Estimated
06:22PM 36.5364 -119.6037 159° South  Level Estimated
06:23PM 36.4763 -119.5751 159° South  Level Estimated
06:24PM 36.4163 -119.5465 159° South  Level Estimated
06:25PM 36.3562 -119.5180 159° South  Level Estimated
06:26PM 36.2962 -119.4895 159° South  Level Estimated
06:27PM 36.2361 -119.4610 159° South  Level Estimated
06:28PM 36.1760 -119.4326 159° South  Level Estimated
06:29PM 36.1160 -119.4043 159° South  Level Estimated
06:30PM 36.0559 -119.3759 159° South  Level Estimated
06:31PM 35.9958 -119.3477 159° South  Level Estimated
06:32PM 35.9357 -119.3194 159° South  Level Estimated
06:33PM 35.8756 -119.2913 159° South  Level Estimated
06:34PM 35.8155 -119.2631 159° South  Level Estimated
06:35PM 35.7554 -119.2350 159° South  Level Estimated
06:36PM 35.6953 -119.2069 159° South  Level Estimated
06:37PM 35.6352 -119.1789 159° South  Level Estimated
06:38PM 35.5750 -119.1509 159° South  Level Estimated
06:39PM 35.5149 -119.1230 159° South  Level Estimated
06:40PM 35.4547 -119.0951 159° South  Level Estimated
06:41PM 35.3946 -119.0673 159° South  Level Estimated
06:42PM 35.3344 -119.0395 159° South  Level Estimated
06:43PM 35.2743 -119.0117 159° South  Level Estimated
06:44PM 35.2141 -118.9840 159° South  Level Estimated
06:45PM 35.1539 -118.9563 159° South  Level Estimated
06:46PM 35.0937 -118.9286 159° South  Level Estimated
06:47PM 35.0335 -118.9010 159° South  Level Estimated
06:48PM 34.9733 -118.8735 159° South  Level Estimated
06:49PM 34.9131 -118.8460 159° South  Level Estimated
06:50PM 34.8529 -118.8185 159° South  Level Estimated
06:51PM 34.7927 -118.7911 159° South  Level Estimated
06:52PM 34.7325 -118.7636 159° South  Level Estimated
06:53PM 34.6723 -118.7363 160° South  Level Estimated
06:54PM 34.6120 -118.7090 160° South  Level Estimated
06:55PM 34.5518 -118.6817 160° South  Level Estimated
06:56PM 34.4916 -118.6544 160° South  Level Estimated
06:57PM 34.4313 -118.6273 160° South  Level Estimated
06:58PM 34.3711 -118.6001 160° South  Level Estimated
06:59PM 34.3108 -118.5730 160° South  Level Estimated
07:00PM 34.2505 -118.5459 160° South  Level Estimated
07:01PM 34.1903 -118.5188 160° South  Level Estimated
07:02PM 34.1300 -118.4918 160° South  Level Estimated
07:03PM 34.0697 -118.4648 160° South  Level Estimated
07:04PM 34.0094 -118.4379 160° South  Level Estimated
07:05PM 33.9491 -118.4110 160° South  Level Estimated
07:06PM 33.9425 -118.4081 160° South  Level Estimated
07:07PM 33.9425 -118.4081 164° South  Level Estimated
07:08PM 33.9425 -118.4081 164° South  Level Estimated
07:09PM 33.9425 -118.4081 164° South  Level Estimated
07:10PM 33.9425 -118.4081 164° South  Level Estimated